sensor_id;sensor_type;location;lat;lon;timestamp;P1;durP1;ratioP1;P2;durP2;ratioP2
7233;SDS011;3658;47.992;10.158;2024-03-29T00:01:12;3.77;;;2.50;;
7233;SDS011;3658;47.992;10.158;2024-03-29T00:03:38;2.50;;;2.30;;
7233;SDS011;3658;47.992;10.158;2024-03-29T00:06:04;2.47;;;2.27;;
7233;SDS011;3658;47.992;10.158;2024-03-29T00:08:30;2.23;;;2.00;;
7233;SDS011;3658;47.992;10.158;2024-03-29T00:10:56;2.40;;;2.20;;
7233;SDS011;3658;47.992;10.158;2024-03-29T00:13:22;2.67;;;2.27;;
7233;SDS011;3658;47.992;10.158;2024-03-29T00:15:48;2.20;;;2.00;;
7233;SDS011;3658;47.992;10.158;2024-03-29T00:18:15;2.30;;;2.10;;
7233;SDS011;3658;47.992;10.158;2024-03-29T00:20:41;2.67;;;2.47;;
7233;SDS011;3658;47.992;10.158;2024-03-29T00:23:07;2.40;;;2.20;;
7233;SDS011;3658;47.992;10.158;2024-03-29T00:25:33;2.30;;;1.90;;
7233;SDS011;3658;47.992;10.158;2024-03-29T00:27:58;2.20;;;2.00;;
7233;SDS011;3658;47.992;10.158;2024-03-29T00:30:24;2.30;;;2.10;;
7233;SDS011;3658;47.992;10.158;2024-03-29T00:32:50;2.53;;;2.03;;
7233;SDS011;3658;47.992;10.158;2024-03-29T00:35:17;2.40;;;2.20;;
7233;SDS011;3658;47.992;10.158;2024-03-29T00:37:43;2.27;;;1.87;;
7233;SDS011;3658;47.992;10.158;2024-03-29T00:40:09;2.20;;;2.00;;
7233;SDS011;3658;47.992;10.158;2024-03-29T00:42:36;2.00;;;1.80;;
7233;SDS011;3658;47.992;10.158;2024-03-29T00:45:02;1.90;;;1.80;;
7233;SDS011;3658;47.992;10.158;2024-03-29T00:47:28;1.90;;;1.60;;
7233;SDS011;3658;47.992;10.158;2024-03-29T00:49:54;2.00;;;1.80;;
7233;SDS011;3658;47.992;10.158;2024-03-29T00:52:21;2.27;;;1.77;;
7233;SDS011;3658;47.992;10.158;2024-03-29T00:54:47;2.10;;;1.90;;
7233;SDS011;3658;47.992;10.158;2024-03-29T00:57:13;1.70;;;1.60;;
7233;SDS011;3658;47.992;10.158;2024-03-29T00:59:39;2.00;;;1.80;;
7233;SDS011;3658;47.992;10.158;2024-03-29T01:02:05;2.23;;;1.80;;
7233;SDS011;3658;47.992;10.158;2024-03-29T01:04:30;1.80;;;1.60;;
7233;SDS011;3658;47.992;10.158;2024-03-29T01:06:56;2.10;;;1.90;;
7233;SDS011;3658;47.992;10.158;2024-03-29T01:09:23;2.30;;;2.10;;
7233;SDS011;3658;47.992;10.158;2024-03-29T01:11:49;1.60;;;1.50;;
7233;SDS011;3658;47.992;10.158;2024-03-29T01:14:16;1.50;;;1.40;;
7233;SDS011;3658;47.992;10.158;2024-03-29T01:16:42;1.90;;;1.70;;
7233;SDS011;3658;47.992;10.158;2024-03-29T01:19:07;1.73;;;1.63;;
7233;SDS011;3658;47.992;10.158;2024-03-29T01:21:33;1.70;;;1.60;;
7233;SDS011;3658;47.992;10.158;2024-03-29T01:23:59;2.10;;;1.90;;
7233;SDS011;3658;47.992;10.158;2024-03-29T01:26:26;2.00;;;1.80;;
7233;SDS011;3658;47.992;10.158;2024-03-29T01:28:52;1.40;;;1.30;;
7233;SDS011;3658;47.992;10.158;2024-03-29T01:31:18;1.77;;;1.63;;
7233;SDS011;3658;47.992;10.158;2024-03-29T01:33:44;1.70;;;1.60;;
7233;SDS011;3658;47.992;10.158;2024-03-29T01:36:10;1.70;;;1.60;;
7233;SDS011;3658;47.992;10.158;2024-03-29T01:38:36;1.70;;;1.60;;
7233;SDS011;3658;47.992;10.158;2024-03-29T01:41:02;1.77;;;1.50;;
7233;SDS011;3658;47.992;10.158;2024-03-29T01:43:29;1.60;;;1.50;;
7233;SDS011;3658;47.992;10.158;2024-03-29T01:45:56;1.67;;;1.57;;
7233;SDS011;3658;47.992;10.158;2024-03-29T01:48:23;1.70;;;1.47;;
7233;SDS011;3658;47.992;10.158;2024-03-29T01:50:51;1.43;;;1.33;;
7233;SDS011;3658;47.992;10.158;2024-03-29T01:53:20;1.53;;;1.30;;
7233;SDS011;3658;47.992;10.158;2024-03-29T01:55:47;1.70;;;1.57;;
7233;SDS011;3658;47.992;10.158;2024-03-29T01:58:14;1.80;;;1.53;;
7233;SDS011;3658;47.992;10.158;2024-03-29T02:00:44;1.50;;;1.40;;
7233;SDS011;3658;47.992;10.158;2024-03-29T02:03:17;1.73;;;1.63;;
7233;SDS011;3658;47.992;10.158;2024-03-29T02:05:44;1.90;;;1.70;;
7233;SDS011;3658;47.992;10.158;2024-03-29T02:08:12;1.40;;;1.30;;
7233;SDS011;3658;47.992;10.158;2024-03-29T02:10:40;1.50;;;1.40;;
7233;SDS011;3658;47.992;10.158;2024-03-29T02:13:07;1.60;;;1.50;;
7233;SDS011;3658;47.992;10.158;2024-03-29T02:15:34;1.47;;;1.37;;
7233;SDS011;3658;47.992;10.158;2024-03-29T02:18:02;1.63;;;1.53;;
7233;SDS011;3658;47.992;10.158;2024-03-29T02:20:29;1.40;;;1.30;;
7233;SDS011;3658;47.992;10.158;2024-03-29T02:23:00;1.60;;;1.50;;
7233;SDS011;3658;47.992;10.158;2024-03-29T02:25:36;1.60;;;1.50;;
7233;SDS011;3658;47.992;10.158;2024-03-29T02:28:04;1.47;;;1.37;;
7233;SDS011;3658;47.992;10.158;2024-03-29T02:30:31;1.40;;;1.30;;
7233;SDS011;3658;47.992;10.158;2024-03-29T02:32:58;1.30;;;1.20;;
7233;SDS011;3658;47.992;10.158;2024-03-29T02:35:26;1.37;;;1.27;;
7233;SDS011;3658;47.992;10.158;2024-03-29T02:37:53;1.40;;;1.30;;
7233;SDS011;3658;47.992;10.158;2024-03-29T02:40:20;1.40;;;1.30;;
7233;SDS011;3658;47.992;10.158;2024-03-29T02:42:48;1.00;;;1.00;;
7233;SDS011;3658;47.992;10.158;2024-03-29T02:45:15;1.30;;;1.20;;
7233;SDS011;3658;47.992;10.158;2024-03-29T02:47:41;1.37;;;1.27;;
7233;SDS011;3658;47.992;10.158;2024-03-29T02:50:09;1.50;;;1.40;;
7233;SDS011;3658;47.992;10.158;2024-03-29T02:52:37;1.40;;;1.30;;
7233;SDS011;3658;47.992;10.158;2024-03-29T02:55:04;1.27;;;1.17;;
7233;SDS011;3658;47.992;10.158;2024-03-29T02:57:30;1.40;;;1.30;;
7233;SDS011;3658;47.992;10.158;2024-03-29T02:59:58;1.30;;;1.20;;
7233;SDS011;3658;47.992;10.158;2024-03-29T03:02:24;1.37;;;1.27;;
7233;SDS011;3658;47.992;10.158;2024-03-29T03:04:50;1.57;;;1.23;;
7233;SDS011;3658;47.992;10.158;2024-03-29T03:07:16;1.30;;;1.20;;
7233;SDS011;3658;47.992;10.158;2024-03-29T03:09:57;1.27;;;1.17;;
7233;SDS011;3658;47.992;10.158;2024-03-29T03:12:41;1.30;;;1.20;;
7233;SDS011;3658;47.992;10.158;2024-03-29T03:15:10;1.33;;;1.23;;
7233;SDS011;3658;47.992;10.158;2024-03-29T03:17:36;1.40;;;1.20;;
7233;SDS011;3658;47.992;10.158;2024-03-29T03:20:04;1.30;;;1.20;;
7233;SDS011;3658;47.992;10.158;2024-03-29T03:22:31;1.07;;;1.07;;
7233;SDS011;3658;47.992;10.158;2024-03-29T03:24:58;1.60;;;1.50;;
7233;SDS011;3658;47.992;10.158;2024-03-29T03:27:24;1.10;;;1.10;;
7233;SDS011;3658;47.992;10.158;2024-03-29T03:29:51;1.20;;;1.10;;
7233;SDS011;3658;47.992;10.158;2024-03-29T03:32:18;1.23;;;1.13;;
7233;SDS011;3658;47.992;10.158;2024-03-29T03:34:44;1.23;;;1.13;;
7233;SDS011;3658;47.992;10.158;2024-03-29T03:37:10;1.53;;;1.20;;
7233;SDS011;3658;47.992;10.158;2024-03-29T03:39:37;1.10;;;1.00;;
7233;SDS011;3658;47.992;10.158;2024-03-29T03:42:03;1.13;;;1.10;;
7233;SDS011;3658;47.992;10.158;2024-03-29T03:44:30;1.00;;;1.00;;
7233;SDS011;3658;47.992;10.158;2024-03-29T03:46:56;1.07;;;1.03;;
7233;SDS011;3658;47.992;10.158;2024-03-29T03:49:24;1.23;;;1.10;;
7233;SDS011;3658;47.992;10.158;2024-03-29T03:51:50;1.17;;;1.10;;
7233;SDS011;3658;47.992;10.158;2024-03-29T03:54:17;1.30;;;1.20;;
7233;SDS011;3658;47.992;10.158;2024-03-29T03:56:42;1.20;;;1.10;;
7233;SDS011;3658;47.992;10.158;2024-03-29T03:59:09;1.30;;;1.20;;
7233;SDS011;3658;47.992;10.158;2024-03-29T04:01:35;1.00;;;1.00;;
7233;SDS011;3658;47.992;10.158;2024-03-29T04:04:02;1.13;;;1.03;;
7233;SDS011;3658;47.992;10.158;2024-03-29T04:06:29;1.17;;;1.10;;
7233;SDS011;3658;47.992;10.158;2024-03-29T04:08:55;1.30;;;1.20;;
7233;SDS011;3658;47.992;10.158;2024-03-29T04:11:21;1.13;;;1.03;;
7233;SDS011;3658;47.992;10.158;2024-03-29T04:13:48;1.23;;;1.13;;
7233;SDS011;3658;47.992;10.158;2024-03-29T04:16:14;0.93;;;0.93;;
7233;SDS011;3658;47.992;10.158;2024-03-29T04:18:40;1.10;;;1.10;;
7233;SDS011;3658;47.992;10.158;2024-03-29T04:21:06;0.90;;;0.90;;
7233;SDS011;3658;47.992;10.158;2024-03-29T04:23:36;1.00;;;1.00;;
7233;SDS011;3658;47.992;10.158;2024-03-29T04:26:02;1.40;;;1.30;;
7233;SDS011;3658;47.992;10.158;2024-03-29T04:28:29;1.20;;;1.10;;
7233;SDS011;3658;47.992;10.158;2024-03-29T04:30:56;1.20;;;1.10;;
7233;SDS011;3658;47.992;10.158;2024-03-29T04:33:24;1.00;;;1.00;;
7233;SDS011;3658;47.992;10.158;2024-03-29T04:35:51;1.00;;;1.00;;
7233;SDS011;3658;47.992;10.158;2024-03-29T04:38:19;0.90;;;0.90;;
7233;SDS011;3658;47.992;10.158;2024-03-29T04:40:48;1.10;;;1.00;;
7233;SDS011;3658;47.992;10.158;2024-03-29T04:43:15;0.90;;;0.90;;
7233;SDS011;3658;47.992;10.158;2024-03-29T04:45:42;1.30;;;1.20;;
7233;SDS011;3658;47.992;10.158;2024-03-29T04:48:09;1.00;;;1.00;;
7233;SDS011;3658;47.992;10.158;2024-03-29T04:50:36;1.10;;;1.10;;
7233;SDS011;3658;47.992;10.158;2024-03-29T04:53:03;0.90;;;0.90;;
7233;SDS011;3658;47.992;10.158;2024-03-29T04:55:30;1.00;;;1.00;;
7233;SDS011;3658;47.992;10.158;2024-03-29T04:57:58;1.10;;;0.93;;
7233;SDS011;3658;47.992;10.158;2024-03-29T05:00:25;1.00;;;1.00;;
7233;SDS011;3658;47.992;10.158;2024-03-29T05:02:52;1.00;;;1.00;;
7233;SDS011;3658;47.992;10.158;2024-03-29T05:05:18;1.13;;;1.07;;
7233;SDS011;3658;47.992;10.158;2024-03-29T05:07:45;1.40;;;1.30;;
7233;SDS011;3658;47.992;10.158;2024-03-29T05:10:13;0.90;;;0.90;;
7233;SDS011;3658;47.992;10.158;2024-03-29T05:12:41;1.00;;;1.00;;
7233;SDS011;3658;47.992;10.158;2024-03-29T05:15:09;0.90;;;0.90;;
7233;SDS011;3658;47.992;10.158;2024-03-29T05:17:36;1.00;;;1.00;;
7233;SDS011;3658;47.992;10.158;2024-03-29T05:20:03;1.00;;;1.00;;
7233;SDS011;3658;47.992;10.158;2024-03-29T05:22:31;1.00;;;1.00;;
7233;SDS011;3658;47.992;10.158;2024-03-29T05:24:57;0.90;;;0.90;;
7233;SDS011;3658;47.992;10.158;2024-03-29T05:27:24;1.00;;;1.00;;
7233;SDS011;3658;47.992;10.158;2024-03-29T05:29:51;1.00;;;1.00;;
7233;SDS011;3658;47.992;10.158;2024-03-29T05:32:19;0.90;;;0.90;;
7233;SDS011;3658;47.992;10.158;2024-03-29T05:34:46;1.10;;;1.00;;
7233;SDS011;3658;47.992;10.158;2024-03-29T05:37:12;1.20;;;1.10;;
7233;SDS011;3658;47.992;10.158;2024-03-29T05:39:41;0.90;;;0.90;;
7233;SDS011;3658;47.992;10.158;2024-03-29T05:42:08;0.90;;;0.90;;
7233;SDS011;3658;47.992;10.158;2024-03-29T05:44:35;0.90;;;0.90;;
7233;SDS011;3658;47.992;10.158;2024-03-29T05:47:02;0.90;;;0.90;;
7233;SDS011;3658;47.992;10.158;2024-03-29T05:49:31;1.20;;;1.10;;
7233;SDS011;3658;47.992;10.158;2024-03-29T05:51:58;0.93;;;0.90;;
7233;SDS011;3658;47.992;10.158;2024-03-29T05:54:25;0.90;;;0.90;;
7233;SDS011;3658;47.992;10.158;2024-03-29T05:56:51;0.93;;;0.93;;
7233;SDS011;3658;47.992;10.158;2024-03-29T05:59:18;1.00;;;1.00;;
7233;SDS011;3658;47.992;10.158;2024-03-29T06:01:45;1.00;;;1.00;;
7233;SDS011;3658;47.992;10.158;2024-03-29T06:04:12;0.90;;;0.90;;
7233;SDS011;3658;47.992;10.158;2024-03-29T06:06:42;0.90;;;0.90;;
7233;SDS011;3658;47.992;10.158;2024-03-29T06:09:09;1.00;;;1.00;;
7233;SDS011;3658;47.992;10.158;2024-03-29T06:11:36;1.10;;;1.00;;
7233;SDS011;3658;47.992;10.158;2024-03-29T06:14:03;1.10;;;1.00;;
7233;SDS011;3658;47.992;10.158;2024-03-29T06:16:47;0.90;;;0.90;;
7233;SDS011;3658;47.992;10.158;2024-03-29T06:19:31;0.80;;;0.80;;
7233;SDS011;3658;47.992;10.158;2024-03-29T06:21:59;1.07;;;0.97;;
7233;SDS011;3658;47.992;10.158;2024-03-29T06:24:26;1.03;;;1.00;;
7233;SDS011;3658;47.992;10.158;2024-03-29T06:26:53;0.93;;;0.93;;
7233;SDS011;3658;47.992;10.158;2024-03-29T06:29:19;0.90;;;0.90;;
7233;SDS011;3658;47.992;10.158;2024-03-29T06:31:46;0.80;;;0.80;;
7233;SDS011;3658;47.992;10.158;2024-03-29T06:34:13;1.00;;;1.00;;
7233;SDS011;3658;47.992;10.158;2024-03-29T06:36:39;1.00;;;1.00;;
7233;SDS011;3658;47.992;10.158;2024-03-29T06:39:08;0.93;;;0.93;;
7233;SDS011;3658;47.992;10.158;2024-03-29T06:41:35;0.93;;;0.93;;
7233;SDS011;3658;47.992;10.158;2024-03-29T06:44:02;0.83;;;0.83;;
7233;SDS011;3658;47.992;10.158;2024-03-29T06:46:29;0.90;;;0.90;;
7233;SDS011;3658;47.992;10.158;2024-03-29T06:48:57;0.90;;;0.90;;
7233;SDS011;3658;47.992;10.158;2024-03-29T06:51:23;0.90;;;0.90;;
7233;SDS011;3658;47.992;10.158;2024-03-29T06:53:50;0.90;;;0.90;;
7233;SDS011;3658;47.992;10.158;2024-03-29T06:56:19;1.00;;;0.90;;
7233;SDS011;3658;47.992;10.158;2024-03-29T06:58:46;1.10;;;1.00;;
7233;SDS011;3658;47.992;10.158;2024-03-29T07:01:13;0.90;;;0.90;;
7233;SDS011;3658;47.992;10.158;2024-03-29T07:03:39;1.13;;;1.00;;
7233;SDS011;3658;47.992;10.158;2024-03-29T07:06:06;1.00;;;1.00;;
7233;SDS011;3658;47.992;10.158;2024-03-29T07:08:33;1.10;;;1.10;;
7233;SDS011;3658;47.992;10.158;2024-03-29T07:11:00;0.90;;;0.90;;
7233;SDS011;3658;47.992;10.158;2024-03-29T07:13:29;0.90;;;0.90;;
7233;SDS011;3658;47.992;10.158;2024-03-29T07:15:57;0.90;;;0.90;;
7233;SDS011;3658;47.992;10.158;2024-03-29T07:18:23;0.90;;;0.90;;
7233;SDS011;3658;47.992;10.158;2024-03-29T07:20:50;0.90;;;0.90;;
7233;SDS011;3658;47.992;10.158;2024-03-29T07:23:17;0.90;;;0.90;;
7233;SDS011;3658;47.992;10.158;2024-03-29T07:25:45;0.97;;;0.97;;
7233;SDS011;3658;47.992;10.158;2024-03-29T07:28:23;1.00;;;1.00;;
7233;SDS011;3658;47.992;10.158;2024-03-29T07:30:51;1.00;;;1.00;;
7233;SDS011;3658;47.992;10.158;2024-03-29T07:33:18;1.00;;;1.00;;
7233;SDS011;3658;47.992;10.158;2024-03-29T07:35:46;0.80;;;0.80;;
7233;SDS011;3658;47.992;10.158;2024-03-29T07:38:13;1.10;;;1.00;;
7233;SDS011;3658;47.992;10.158;2024-03-29T07:40:40;0.90;;;0.90;;
7233;SDS011;3658;47.992;10.158;2024-03-29T07:43:07;1.00;;;0.90;;
7233;SDS011;3658;47.992;10.158;2024-03-29T07:45:34;1.23;;;1.10;;
7233;SDS011;3658;47.992;10.158;2024-03-29T07:48:02;0.93;;;0.93;;
7233;SDS011;3658;47.992;10.158;2024-03-29T07:50:29;0.93;;;0.93;;
7233;SDS011;3658;47.992;10.158;2024-03-29T07:52:56;0.90;;;0.90;;
7233;SDS011;3658;47.992;10.158;2024-03-29T07:55:23;0.90;;;0.90;;
7233;SDS011;3658;47.992;10.158;2024-03-29T07:57:49;1.10;;;1.00;;
7233;SDS011;3658;47.992;10.158;2024-03-29T08:00:16;1.00;;;1.00;;
7233;SDS011;3658;47.992;10.158;2024-03-29T08:02:44;1.00;;;1.00;;
7233;SDS011;3658;47.992;10.158;2024-03-29T08:05:12;1.00;;;1.00;;
7233;SDS011;3658;47.992;10.158;2024-03-29T08:07:39;1.10;;;1.00;;
7233;SDS011;3658;47.992;10.158;2024-03-29T08:10:06;1.00;;;1.00;;
7233;SDS011;3658;47.992;10.158;2024-03-29T08:12:33;1.20;;;1.10;;
7233;SDS011;3658;47.992;10.158;2024-03-29T08:15:02;1.23;;;0.90;;
7233;SDS011;3658;47.992;10.158;2024-03-29T08:17:29;1.00;;;1.00;;
7233;SDS011;3658;47.992;10.158;2024-03-29T08:19:55;1.23;;;1.13;;
7233;SDS011;3658;47.992;10.158;2024-03-29T08:22:24;1.00;;;1.00;;
7233;SDS011;3658;47.992;10.158;2024-03-29T08:24:51;1.00;;;1.00;;
7233;SDS011;3658;47.992;10.158;2024-03-29T08:27:17;1.00;;;1.00;;
7233;SDS011;3658;47.992;10.158;2024-03-29T08:29:44;1.00;;;1.00;;
7233;SDS011;3658;47.992;10.158;2024-03-29T08:32:11;1.00;;;1.00;;
7233;SDS011;3658;47.992;10.158;2024-03-29T08:34:38;1.30;;;1.20;;
7233;SDS011;3658;47.992;10.158;2024-03-29T08:37:05;1.00;;;1.00;;
7233;SDS011;3658;47.992;10.158;2024-03-29T08:39:33;1.00;;;1.00;;
7233;SDS011;3658;47.992;10.158;2024-03-29T08:42:00;0.97;;;0.97;;
7233;SDS011;3658;47.992;10.158;2024-03-29T08:44:30;0.90;;;0.90;;
7233;SDS011;3658;47.992;10.158;2024-03-29T08:46:56;0.97;;;0.97;;
7233;SDS011;3658;47.992;10.158;2024-03-29T08:49:24;1.03;;;1.03;;
7233;SDS011;3658;47.992;10.158;2024-03-29T08:51:51;1.03;;;1.00;;
7233;SDS011;3658;47.992;10.158;2024-03-29T08:54:17;0.90;;;0.90;;
7233;SDS011;3658;47.992;10.158;2024-03-29T08:56:46;1.07;;;1.00;;
7233;SDS011;3658;47.992;10.158;2024-03-29T08:59:13;1.00;;;1.00;;
7233;SDS011;3658;47.992;10.158;2024-03-29T09:01:41;1.10;;;1.00;;
7233;SDS011;3658;47.992;10.158;2024-03-29T09:04:10;1.00;;;1.00;;
7233;SDS011;3658;47.992;10.158;2024-03-29T09:06:37;0.90;;;0.90;;
7233;SDS011;3658;47.992;10.158;2024-03-29T09:09:04;1.03;;;1.00;;
7233;SDS011;3658;47.992;10.158;2024-03-29T09:11:31;1.03;;;1.03;;
7233;SDS011;3658;47.992;10.158;2024-03-29T09:13:59;1.53;;;1.10;;
7233;SDS011;3658;47.992;10.158;2024-03-29T09:16:26;1.10;;;1.10;;
7233;SDS011;3658;47.992;10.158;2024-03-29T09:18:55;1.10;;;1.10;;
7233;SDS011;3658;47.992;10.158;2024-03-29T09:21:21;0.83;;;0.83;;
7233;SDS011;3658;47.992;10.158;2024-03-29T09:23:48;1.00;;;1.00;;
7233;SDS011;3658;47.992;10.158;2024-03-29T09:26:17;1.23;;;1.13;;
7233;SDS011;3658;47.992;10.158;2024-03-29T09:28:45;1.10;;;1.00;;
7233;SDS011;3658;47.992;10.158;2024-03-29T09:31:13;1.73;;;1.27;;
7233;SDS011;3658;47.992;10.158;2024-03-29T09:33:39;1.10;;;1.10;;
7233;SDS011;3658;47.992;10.158;2024-03-29T09:36:06;1.10;;;1.00;;
7233;SDS011;3658;47.992;10.158;2024-03-29T09:38:36;1.00;;;1.00;;
7233;SDS011;3658;47.992;10.158;2024-03-29T09:41:04;0.90;;;0.90;;
7233;SDS011;3658;47.992;10.158;2024-03-29T09:43:42;1.03;;;1.00;;
7233;SDS011;3658;47.992;10.158;2024-03-29T09:46:10;1.20;;;1.10;;
7233;SDS011;3658;47.992;10.158;2024-03-29T09:48:39;0.90;;;0.90;;
7233;SDS011;3658;47.992;10.158;2024-03-29T09:51:06;1.00;;;1.00;;
7233;SDS011;3658;47.992;10.158;2024-03-29T09:53:34;1.00;;;1.00;;
7233;SDS011;3658;47.992;10.158;2024-03-29T09:56:02;1.20;;;1.10;;
7233;SDS011;3658;47.992;10.158;2024-03-29T09:58:30;0.90;;;0.90;;
7233;SDS011;3658;47.992;10.158;2024-03-29T10:00:56;1.20;;;1.10;;
7233;SDS011;3658;47.992;10.158;2024-03-29T10:03:25;1.10;;;1.10;;
7233;SDS011;3658;47.992;10.158;2024-03-29T10:05:55;1.30;;;1.20;;
7233;SDS011;3658;47.992;10.158;2024-03-29T10:08:22;1.00;;;1.00;;
7233;SDS011;3658;47.992;10.158;2024-03-29T10:10:49;0.90;;;0.90;;
7233;SDS011;3658;47.992;10.158;2024-03-29T10:13:17;1.23;;;1.13;;
7233;SDS011;3658;47.992;10.158;2024-03-29T10:15:43;1.00;;;1.00;;
7233;SDS011;3658;47.992;10.158;2024-03-29T10:18:14;1.40;;;1.20;;
7233;SDS011;3658;47.992;10.158;2024-03-29T10:20:44;1.00;;;1.00;;
7233;SDS011;3658;47.992;10.158;2024-03-29T10:23:10;1.20;;;1.10;;
7233;SDS011;3658;47.992;10.158;2024-03-29T10:25:38;0.87;;;0.87;;
7233;SDS011;3658;47.992;10.158;2024-03-29T10:28:05;1.10;;;1.10;;
7233;SDS011;3658;47.992;10.158;2024-03-29T10:30:32;1.10;;;1.10;;
7233;SDS011;3658;47.992;10.158;2024-03-29T10:33:00;1.37;;;1.20;;
7233;SDS011;3658;47.992;10.158;2024-03-29T10:35:26;1.10;;;1.00;;
7233;SDS011;3658;47.992;10.158;2024-03-29T10:37:55;1.23;;;1.13;;
7233;SDS011;3658;47.992;10.158;2024-03-29T10:40:21;1.00;;;1.00;;
7233;SDS011;3658;47.992;10.158;2024-03-29T10:42:50;1.20;;;1.10;;
7233;SDS011;3658;47.992;10.158;2024-03-29T10:45:18;1.40;;;1.13;;
7233;SDS011;3658;47.992;10.158;2024-03-29T10:47:47;0.93;;;0.93;;
7233;SDS011;3658;47.992;10.158;2024-03-29T10:50:15;1.40;;;1.30;;
7233;SDS011;3658;47.992;10.158;2024-03-29T10:52:46;1.07;;;1.07;;
7233;SDS011;3658;47.992;10.158;2024-03-29T10:55:15;1.00;;;1.00;;
7233;SDS011;3658;47.992;10.158;2024-03-29T10:57:42;1.03;;;1.00;;
7233;SDS011;3658;47.992;10.158;2024-03-29T11:00:11;1.20;;;1.10;;
7233;SDS011;3658;47.992;10.158;2024-03-29T11:02:42;1.30;;;1.10;;
7233;SDS011;3658;47.992;10.158;2024-03-29T11:05:15;0.90;;;0.90;;
7233;SDS011;3658;47.992;10.158;2024-03-29T11:07:43;1.27;;;1.17;;
7233;SDS011;3658;47.992;10.158;2024-03-29T11:10:13;1.00;;;1.00;;
7233;SDS011;3658;47.992;10.158;2024-03-29T11:12:56;1.80;;;1.20;;
7233;SDS011;3658;47.992;10.158;2024-03-29T11:15:28;1.10;;;1.10;;
7233;SDS011;3658;47.992;10.158;2024-03-29T11:17:56;1.30;;;1.20;;
7233;SDS011;3658;47.992;10.158;2024-03-29T11:20:24;1.20;;;1.10;;
7233;SDS011;3658;47.992;10.158;2024-03-29T11:23:00;1.10;;;1.10;;
7233;SDS011;3658;47.992;10.158;2024-03-29T11:25:38;0.97;;;0.97;;
7233;SDS011;3658;47.992;10.158;2024-03-29T11:28:06;1.00;;;1.00;;
7233;SDS011;3658;47.992;10.158;2024-03-29T11:30:41;1.10;;;1.00;;
7233;SDS011;3658;47.992;10.158;2024-03-29T11:35:54;1.50;;;1.20;;
7233;SDS011;3658;47.992;10.158;2024-03-29T11:38:21;1.10;;;1.10;;
7233;SDS011;3658;47.992;10.158;2024-03-29T11:41:01;1.20;;;1.10;;
7233;SDS011;3658;47.992;10.158;2024-03-29T11:43:29;1.00;;;1.00;;
7233;SDS011;3658;47.992;10.158;2024-03-29T11:45:56;1.10;;;1.10;;
7233;SDS011;3658;47.992;10.158;2024-03-29T11:48:26;1.10;;;1.10;;
7233;SDS011;3658;47.992;10.158;2024-03-29T11:50:54;1.10;;;1.10;;
7233;SDS011;3658;47.992;10.158;2024-03-29T11:53:21;1.20;;;1.10;;
7233;SDS011;3658;47.992;10.158;2024-03-29T11:55:47;1.20;;;1.10;;
7233;SDS011;3658;47.992;10.158;2024-03-29T11:58:19;1.00;;;1.00;;
7233;SDS011;3658;47.992;10.158;2024-03-29T12:00:47;1.47;;;1.30;;
7233;SDS011;3658;47.992;10.158;2024-03-29T12:03:15;1.30;;;1.20;;
7233;SDS011;3658;47.992;10.158;2024-03-29T12:05:42;1.03;;;1.00;;
7233;SDS011;3658;47.992;10.158;2024-03-29T12:08:09;1.20;;;1.10;;
7233;SDS011;3658;47.992;10.158;2024-03-29T12:10:36;1.30;;;1.20;;
7233;SDS011;3658;47.992;10.158;2024-03-29T12:13:04;1.33;;;1.10;;
7233;SDS011;3658;47.992;10.158;2024-03-29T12:15:32;1.20;;;1.10;;
7233;SDS011;3658;47.992;10.158;2024-03-29T12:17:59;1.03;;;1.00;;
7233;SDS011;3658;47.992;10.158;2024-03-29T12:20:28;1.90;;;1.20;;
7233;SDS011;3658;47.992;10.158;2024-03-29T12:22:56;1.20;;;1.10;;
7233;SDS011;3658;47.992;10.158;2024-03-29T12:25:25;1.00;;;1.00;;
7233;SDS011;3658;47.992;10.158;2024-03-29T12:27:53;1.10;;;1.07;;
7233;SDS011;3658;47.992;10.158;2024-03-29T12:30:20;1.27;;;1.17;;
7233;SDS011;3658;47.992;10.158;2024-03-29T12:32:48;1.00;;;1.00;;
7233;SDS011;3658;47.992;10.158;2024-03-29T12:35:26;1.20;;;1.10;;
7233;SDS011;3658;47.992;10.158;2024-03-29T12:37:53;0.90;;;0.90;;
7233;SDS011;3658;47.992;10.158;2024-03-29T12:40:21;0.90;;;0.90;;
7233;SDS011;3658;47.992;10.158;2024-03-29T12:42:50;1.00;;;1.00;;
7233;SDS011;3658;47.992;10.158;2024-03-29T12:45:17;0.90;;;0.90;;
7233;SDS011;3658;47.992;10.158;2024-03-29T12:47:44;1.03;;;1.03;;
7233;SDS011;3658;47.992;10.158;2024-03-29T12:50:13;1.20;;;1.10;;
7233;SDS011;3658;47.992;10.158;2024-03-29T12:52:50;1.27;;;1.17;;
7233;SDS011;3658;47.992;10.158;2024-03-29T12:55:20;1.23;;;1.13;;
7233;SDS011;3658;47.992;10.158;2024-03-29T12:57:48;0.90;;;0.90;;
7233;SDS011;3658;47.992;10.158;2024-03-29T13:00:15;1.27;;;1.20;;
7233;SDS011;3658;47.992;10.158;2024-03-29T13:02:42;1.47;;;1.20;;
7233;SDS011;3658;47.992;10.158;2024-03-29T13:05:09;1.00;;;1.00;;
7233;SDS011;3658;47.992;10.158;2024-03-29T13:07:37;1.00;;;1.00;;
7233;SDS011;3658;47.992;10.158;2024-03-29T13:10:04;1.20;;;1.10;;
7233;SDS011;3658;47.992;10.158;2024-03-29T13:12:37;1.20;;;1.07;;
7233;SDS011;3658;47.992;10.158;2024-03-29T13:15:14;1.17;;;1.07;;
7233;SDS011;3658;47.992;10.158;2024-03-29T13:17:43;0.97;;;0.97;;
7233;SDS011;3658;47.992;10.158;2024-03-29T13:20:11;1.10;;;1.00;;
7233;SDS011;3658;47.992;10.158;2024-03-29T13:22:40;1.30;;;1.10;;
7233;SDS011;3658;47.992;10.158;2024-03-29T13:25:07;1.47;;;1.20;;
7233;SDS011;3658;47.992;10.158;2024-03-29T13:27:35;1.30;;;1.20;;
7233;SDS011;3658;47.992;10.158;2024-03-29T13:30:02;1.13;;;1.00;;
7233;SDS011;3658;47.992;10.158;2024-03-29T13:32:30;1.10;;;1.00;;
7233;SDS011;3658;47.992;10.158;2024-03-29T13:34:58;1.00;;;1.00;;
7233;SDS011;3658;47.992;10.158;2024-03-29T13:37:24;1.10;;;1.00;;
7233;SDS011;3658;47.992;10.158;2024-03-29T13:39:54;1.63;;;1.13;;
7233;SDS011;3658;47.992;10.158;2024-03-29T13:42:21;1.20;;;1.10;;
7233;SDS011;3658;47.992;10.158;2024-03-29T13:44:49;1.07;;;0.97;;
7233;SDS011;3658;47.992;10.158;2024-03-29T13:47:16;1.47;;;1.10;;
7233;SDS011;3658;47.992;10.158;2024-03-29T13:49:43;1.20;;;1.10;;
7233;SDS011;3658;47.992;10.158;2024-03-29T13:52:11;1.17;;;1.07;;
7233;SDS011;3658;47.992;10.158;2024-03-29T13:54:42;1.03;;;1.03;;
7233;SDS011;3658;47.992;10.158;2024-03-29T13:57:10;1.30;;;1.20;;
7233;SDS011;3658;47.992;10.158;2024-03-29T13:59:37;0.93;;;0.93;;
7233;SDS011;3658;47.992;10.158;2024-03-29T14:02:04;1.20;;;1.10;;
7233;SDS011;3658;47.992;10.158;2024-03-29T14:04:30;0.90;;;0.90;;
7233;SDS011;3658;47.992;10.158;2024-03-29T14:06:58;1.20;;;1.10;;
7233;SDS011;3658;47.992;10.158;2024-03-29T14:09:26;1.27;;;1.10;;
7233;SDS011;3658;47.992;10.158;2024-03-29T14:11:53;1.17;;;1.07;;
7233;SDS011;3658;47.992;10.158;2024-03-29T14:14:22;0.90;;;0.90;;
7233;SDS011;3658;47.992;10.158;2024-03-29T14:16:49;1.70;;;1.33;;
7233;SDS011;3658;47.992;10.158;2024-03-29T14:19:16;1.60;;;1.10;;
7233;SDS011;3658;47.992;10.158;2024-03-29T14:21:42;1.30;;;1.10;;
7233;SDS011;3658;47.992;10.158;2024-03-29T14:24:09;1.40;;;1.30;;
7233;SDS011;3658;47.992;10.158;2024-03-29T14:26:36;1.20;;;1.10;;
7233;SDS011;3658;47.992;10.158;2024-03-29T14:29:03;1.03;;;1.00;;
7233;SDS011;3658;47.992;10.158;2024-03-29T14:31:32;1.00;;;1.00;;
7233;SDS011;3658;47.992;10.158;2024-03-29T14:33:59;1.43;;;1.20;;
7233;SDS011;3658;47.992;10.158;2024-03-29T14:36:26;1.13;;;1.10;;
7233;SDS011;3658;47.992;10.158;2024-03-29T14:38:54;1.30;;;1.20;;
7233;SDS011;3658;47.992;10.158;2024-03-29T14:41:21;1.00;;;1.00;;
7233;SDS011;3658;47.992;10.158;2024-03-29T14:43:48;1.53;;;1.23;;
7233;SDS011;3658;47.992;10.158;2024-03-29T14:46:17;1.00;;;1.00;;
7233;SDS011;3658;47.992;10.158;2024-03-29T14:48:47;1.20;;;1.10;;
7233;SDS011;3658;47.992;10.158;2024-03-29T14:51:13;1.23;;;1.13;;
7233;SDS011;3658;47.992;10.158;2024-03-29T14:53:41;1.10;;;1.00;;
7233;SDS011;3658;47.992;10.158;2024-03-29T14:56:13;0.90;;;0.90;;
7233;SDS011;3658;47.992;10.158;2024-03-29T14:58:40;1.63;;;0.90;;
7233;SDS011;3658;47.992;10.158;2024-03-29T15:01:07;1.00;;;1.00;;
7233;SDS011;3658;47.992;10.158;2024-03-29T15:03:34;1.20;;;1.10;;
7233;SDS011;3658;47.992;10.158;2024-03-29T15:06:02;0.93;;;0.93;;